Time,TemperatureF,DewpointF,PressureIn,WindDirection,WindDirectionDegrees,WindSpeedMPH,WindSpeedGustMPH,Humidity,HourlyPrecipIn,Conditions,Clouds,dailyrainin,SoftwareType,DateUTC
2013-02-19 00:00:00,50.2,45.9,30.24,ESE,113,0.0,0.0,85,0.00,,CLR,0.00,VWS V14.01,2013-02-19 05:00:00,
2013-02-19 00:02:00,50.1,45.8,30.24,ESE,113,0.0,0.0,85,0.00,,CLR,0.00,VWS V14.01,2013-02-19 05:02:00,
2013-02-19 00:04:00,50.0,45.7,30.25,ESE,113,0.0,0.0,85,0.00,,CLR,0.00,VWS V14.01,2013-02-19 05:04:00,
2013-02-19 00:09:00,49.8,45.8,30.25,ESE,113,0.0,0.0,86,0.00,,CLR,0.00,VWS V14.01,2013-02-19 05:09:00,
2013-02-19 00:14:00,49.2,45.2,30.25,ESE,113,0.0,0.0,86,0.00,,CLR,0.00,VWS V14.01,2013-02-19 05:14:00,
2013-02-19 00:15:00,49.0,44.7,30.25,ESE,113,0.0,0.0,85,0.00,,CLR,0.00,VWS V14.01,2013-02-19 05:15:00,
2013-02-19 00:20:00,48.4,44.4,30.25,ESE,113,0.0,0.0,86,0.00,,CLR,0.00,VWS V14.01,2013-02-19 05:20:00,
2013-02-19 00:25:00,48.2,44.5,30.24,ESE,113,0.0,0.0,87,0.00,,CLR,0.00,VWS V14.01,2013-02-19 05:25:00,
2013-02-19 00:30:00,48.5,44.8,30.25,ESE,113,0.0,0.0,87,0.00,,CLR,0.00,VWS V14.01,2013-02-19 05:30:00,
2013-02-19 00:35:00,48.6,44.9,30.25,ESE,113,0.0,0.0,87,0.00,,CLR,0.00,VWS V14.01,2013-02-19 05:35:00,
2013-02-19 00:40:00,48.4,44.7,30.25,ESE,113,0.0,0.0,87,0.00,,CLR,0.00,VWS V14.01,2013-02-19 05:40:00,
2013-02-19 00:45:00,47.5,43.8,30.25,ESE,113,0.0,0.0,87,0.00,,CLR,0.00,VWS V14.01,2013-02-19 05:45:00,
2013-02-19 00:50:00,47.2,43.8,30.25,ESE,113,0.0,0.0,88,0.00,,CLR,0.00,VWS V14.01,2013-02-19 05:50:00,
2013-02-19 00:55:00,47.2,44.1,30.25,ESE,113,0.0,0.0,89,0.00,,CLR,0.00,VWS V14.01,2013-02-19 05:55:00,
2013-02-19 01:00:00,47.1,44.0,30.25,ESE,113,0.0,0.0,89,0.00,,CLR,0.00,VWS V14.01,2013-02-19 06:00:00,
2013-02-19 01:05:00,46.7,43.6,30.24,ESE,113,0.0,0.0,89,0.00,,CLR,0.00,VWS V14.01,2013-02-19 06:05:00,
2013-02-19 01:10:00,46.4,43.6,30.24,ESE,113,0.0,0.0,90,0.00,,CLR,0.00,VWS V14.01,2013-02-19 06:10:00,
2013-02-19 01:15:00,46.1,43.3,30.24,ESE,113,0.0,0.0,90,0.00,,CLR,0.00,VWS V14.01,2013-02-19 06:15:00,
2013-02-19 01:20:00,46.0,43.2,30.24,ESE,113,0.0,0.0,90,0.00,,CLR,0.00,VWS V14.01,2013-02-19 06:20:00,
2013-02-19 01:25:00,45.9,43.1,30.25,ESE,113,0.0,0.0,90,0.00,,CLR,0.00,VWS V14.01,2013-02-19 06:25:00,
2013-02-19 01:31:00,46.1,43.6,30.24,ESE,113,0.0,0.0,91,0.00,,CLR,0.00,VWS V14.01,2013-02-19 06:31:00,
2013-02-19 01:36:00,45.7,42.9,30.24,ESE,113,0.0,0.0,90,0.00,,CLR,0.00,VWS V14.01,2013-02-19 06:36:00,
2013-02-19 01:41:00,45.7,43.2,30.25,ESE,113,0.0,0.0,91,0.00,,CLR,0.00,VWS V14.01,2013-02-19 06:41:00,
2013-02-19 01:46:00,45.5,43.0,30.24,ESE,113,0.0,0.0,91,0.00,,CLR,0.00,VWS V14.01,2013-02-19 06:46:00,
2013-02-19 01:51:00,45.4,42.9,30.24,ESE,113,0.0,0.0,91,0.00,,CLR,0.00,VWS V14.01,2013-02-19 06:51:00,
2013-02-19 01:56:00,45.5,43.3,30.24,ESE,113,0.0,0.0,92,0.00,,CLR,0.00,VWS V14.01,2013-02-19 06:56:00,
2013-02-19 02:01:00,45.4,42.9,30.24,ESE,113,0.0,0.0,91,0.00,,CLR,0.00,VWS V14.01,2013-02-19 07:01:00,
2013-02-19 02:06:00,45.0,42.5,30.23,ESE,113,0.0,0.0,91,0.00,,CLR,0.00,VWS V14.01,2013-02-19 07:06:00,
2013-02-19 02:11:00,44.8,42.6,30.23,ESE,113,0.0,0.0,92,0.00,,CLR,0.00,VWS V14.01,2013-02-19 07:11:00,
2013-02-19 02:16:00,45.0,42.8,30.23,ESE,113,0.0,0.0,92,0.00,,CLR,0.00,VWS V14.01,2013-02-19 07:16:00,
2013-02-19 02:21:00,45.3,43.1,30.23,ESE,113,0.0,0.0,92,0.00,,CLR,0.00,VWS V14.01,2013-02-19 07:21:00,
2013-02-19 02:26:00,44.9,42.7,30.22,ESE,113,0.0,0.0,92,0.00,,CLR,0.00,VWS V14.01,2013-02-19 07:26:00,
2013-02-19 02:31:00,44.7,42.5,30.22,ESE,113,0.0,0.0,92,0.00,,CLR,0.00,VWS V14.01,2013-02-19 07:31:00,
2013-02-19 02:36:00,44.5,42.6,30.21,ESE,113,0.0,0.0,93,0.00,,CLR,0.00,VWS V14.01,2013-02-19 07:36:00,
2013-02-19 02:41:00,44.0,42.1,30.21,ESE,113,0.0,0.0,93,0.00,,CLR,0.00,VWS V14.01,2013-02-19 07:41:00,
2013-02-19 02:47:00,44.3,42.7,30.20,ESE,113,0.0,0.0,94,0.00,,CLR,0.00,VWS V14.01,2013-02-19 07:47:00,
2013-02-19 02:52:00,44.7,43.1,30.20,ESE,113,0.0,0.0,94,0.00,,CLR,0.00,VWS V14.01,2013-02-19 07:52:00,
2013-02-19 02:57:00,45.3,44.0,30.20,ESE,113,0.0,0.0,95,0.00,,CLR,0.00,VWS V14.01,2013-02-19 07:57:00,
2013-02-19 03:02:00,45.2,43.6,30.19,ESE,113,0.0,0.0,94,0.00,,CLR,0.00,VWS V14.01,2013-02-19 08:02:00,
2013-02-19 03:07:00,45.1,43.5,30.19,ESE,113,0.0,0.0,94,0.00,,CLR,0.00,VWS V14.01,2013-02-19 08:07:00,
2013-02-19 03:12:00,45.5,43.9,30.19,ESE,113,0.0,0.0,94,0.00,,CLR,0.00,VWS V14.01,2013-02-19 08:12:00,
2013-02-19 03:17:00,45.8,44.2,30.19,ESE,113,0.0,0.0,94,0.00,,CLR,0.00,VWS V14.01,2013-02-19 08:17:00,
2013-02-19 03:22:00,45.9,44.3,30.19,ESE,113,0.0,0.0,94,0.00,,CLR,0.00,VWS V14.01,2013-02-19 08:22:00,
2013-02-19 03:27:00,45.8,44.2,30.19,ESE,113,0.0,0.0,94,0.00,,CLR,0.00,VWS V14.01,2013-02-19 08:27:00,
2013-02-19 03:32:00,45.9,44.3,30.19,ESE,113,0.0,0.0,94,0.00,,CLR,0.00,VWS V14.01,2013-02-19 08:32:00,
2013-02-19 03:37:00,45.8,44.2,30.19,ESE,113,0.0,0.0,94,0.00,,CLR,0.00,VWS V14.01,2013-02-19 08:37:00,
2013-02-19 03:42:00,45.8,44.2,30.19,ESE,113,0.0,0.0,94,0.00,,CLR,0.00,VWS V14.01,2013-02-19 08:42:00,
2013-02-19 03:47:00,45.5,43.9,30.19,ESE,113,0.0,0.0,94,0.00,,CLR,0.00,VWS V14.01,2013-02-19 08:47:00,
2013-02-19 03:52:00,45.4,43.8,30.19,ESE,113,0.0,0.0,94,0.00,,CLR,0.00,VWS V14.01,2013-02-19 08:52:00,
2013-02-19 03:57:00,45.2,43.6,30.19,ESE,113,0.0,0.0,94,0.00,,CLR,0.00,VWS V14.01,2013-02-19 08:57:00,
2013-02-19 04:02:00,45.4,44.0,30.19,ESE,113,0.0,0.0,95,0.00,,CLR,0.00,VWS V14.01,2013-02-19 09:02:00,
2013-02-19 04:07:00,45.5,44.2,30.18,ESE,113,0.0,0.0,95,0.00,,CLR,0.00,VWS V14.01,2013-02-19 09:07:00,
2013-02-19 04:12:00,45.8,44.5,30.18,ESE,113,0.0,0.0,95,0.00,,CLR,0.00,VWS V14.01,2013-02-19 09:12:00,
2013-02-19 04:17:00,46.0,44.7,30.19,ESE,113,0.0,0.0,95,0.00,,CLR,0.00,VWS V14.01,2013-02-19 09:17:00,
2013-02-19 04:22:00,46.0,44.4,30.19,ESE,113,0.0,0.0,94,0.00,,CLR,0.00,VWS V14.01,2013-02-19 09:22:00,
2013-02-19 04:27:00,46.3,45.0,30.18,ESE,113,0.0,0.0,95,0.00,,CLR,0.00,VWS V14.01,2013-02-19 09:27:00,
2013-02-19 04:32:00,46.8,45.5,30.18,ESE,113,0.0,0.0,95,0.00,,CLR,0.00,VWS V14.01,2013-02-19 09:32:00,
2013-02-19 04:37:00,46.9,45.3,30.18,ESE,113,0.0,0.0,94,0.00,,CLR,0.00,VWS V14.01,2013-02-19 09:37:00,
2013-02-19 04:42:00,46.6,45.0,30.19,ESE,113,0.0,0.0,94,0.00,,CLR,0.00,VWS V14.01,2013-02-19 09:42:00,
2013-02-19 04:47:00,46.4,44.8,30.18,ESE,113,0.0,0.0,94,0.00,,CLR,0.00,VWS V14.01,2013-02-19 09:47:00,
2013-02-19 04:52:00,46.3,44.7,30.18,ESE,113,0.0,0.0,94,0.00,,CLR,0.00,VWS V14.01,2013-02-19 09:52:00,
2013-02-19 04:57:00,46.2,44.6,30.17,ESE,113,0.0,0.0,94,0.00,,CLR,0.00,VWS V14.01,2013-02-19 09:57:00,
2013-02-19 05:03:00,46.5,44.9,30.17,ESE,113,0.0,0.0,94,0.00,,CLR,0.00,VWS V14.01,2013-02-19 10:03:00,
2013-02-19 05:08:00,46.6,45.0,30.17,ESE,113,0.0,0.0,94,0.00,,CLR,0.00,VWS V14.01,2013-02-19 10:08:00,
2013-02-19 05:13:00,46.6,45.0,30.18,ESE,113,0.0,0.0,94,0.00,,CLR,0.00,VWS V14.01,2013-02-19 10:13:00,
2013-02-19 05:18:00,46.7,45.1,30.18,ESE,113,0.0,0.0,94,0.00,,CLR,0.00,VWS V14.01,2013-02-19 10:18:00,
2013-02-19 05:23:00,46.4,44.8,30.17,ESE,113,0.0,0.0,94,0.00,,CLR,0.00,VWS V14.01,2013-02-19 10:23:00,
2013-02-19 05:28:00,46.5,45.2,30.17,ESE,113,0.0,0.0,95,0.00,,CLR,0.00,VWS V14.01,2013-02-19 10:28:00,
2013-02-19 05:33:00,46.9,45.5,30.17,ESE,113,0.0,0.0,95,0.00,,CLR,0.00,VWS V14.01,2013-02-19 10:33:00,
2013-02-19 05:38:00,46.4,44.8,30.18,ESE,113,0.0,0.0,94,0.00,,CLR,0.00,VWS V14.01,2013-02-19 10:38:00,
2013-02-19 05:43:00,46.2,44.6,30.17,ESE,113,0.0,0.0,94,0.00,,CLR,0.00,VWS V14.01,2013-02-19 10:43:00,
2013-02-19 05:48:00,46.5,44.9,30.17,ESE,113,0.0,0.0,94,0.00,,CLR,0.00,VWS V14.01,2013-02-19 10:48:00,
2013-02-19 05:53:00,46.2,44.6,30.17,ESE,113,0.0,0.0,94,0.00,,CLR,0.00,VWS V14.01,2013-02-19 10:53:00,
2013-02-19 05:58:00,46.1,44.8,30.18,ESE,113,0.0,0.0,95,0.00,,CLR,0.00,VWS V14.01,2013-02-19 10:58:00,
2013-02-19 06:03:00,45.9,44.5,30.17,ESE,113,0.0,0.0,95,0.00,,CLR,0.00,VWS V14.01,2013-02-19 11:03:00,
2013-02-19 06:08:00,46.0,44.7,30.17,ESE,113,0.0,0.0,95,0.00,,CLR,0.00,VWS V14.01,2013-02-19 11:08:00,
2013-02-19 06:13:00,46.4,45.0,30.18,ESE,113,0.0,0.0,95,0.00,,CLR,0.00,VWS V14.01,2013-02-19 11:13:00,
2013-02-19 06:18:00,46.7,45.3,30.18,ESE,113,0.0,0.0,95,0.00,,CLR,0.00,VWS V14.01,2013-02-19 11:18:00,
2013-02-19 06:23:00,46.7,45.1,30.17,ESE,113,0.0,0.0,94,0.00,,CLR,0.00,VWS V14.01,2013-02-19 11:23:00,
2013-02-19 06:28:00,47.0,45.4,30.18,ESE,113,0.0,0.0,94,0.00,,CLR,0.00,VWS V14.01,2013-02-19 11:28:00,
2013-02-19 06:33:00,46.6,44.7,30.18,ESE,113,0.0,0.0,93,0.00,,CLR,0.00,VWS V14.01,2013-02-19 11:33:00,
2013-02-19 06:38:00,46.4,44.5,30.18,ESE,113,0.0,0.0,93,0.00,,CLR,0.00,VWS V14.01,2013-02-19 11:38:00,
2013-02-19 06:43:00,46.2,44.6,30.18,ESE,113,0.0,0.0,94,0.00,,CLR,0.00,VWS V14.01,2013-02-19 11:43:00,
2013-02-19 06:48:00,46.4,45.0,30.18,ESE,113,0.0,0.0,95,0.00,,CLR,0.00,VWS V14.01,2013-02-19 11:48:00,
2013-02-19 06:54:00,46.2,44.6,30.18,ESE,113,0.0,0.0,94,0.00,,CLR,0.00,VWS V14.01,2013-02-19 11:54:00,
2013-02-19 06:59:00,46.1,44.8,30.18,ESE,113,0.0,0.0,95,0.00,,CLR,0.00,VWS V14.01,2013-02-19 11:59:00,
2013-02-19 07:04:00,46.4,45.0,30.18,ESE,113,0.0,0.0,95,0.00,,CLR,0.00,VWS V14.01,2013-02-19 12:04:00,
2013-02-19 07:09:00,46.2,44.6,30.18,ESE,113,0.0,0.0,94,0.00,,CLR,0.00,VWS V14.01,2013-02-19 12:09:00,
2013-02-19 07:14:00,46.3,45.0,30.18,ESE,113,0.0,0.0,95,0.00,,CLR,0.00,VWS V14.01,2013-02-19 12:14:00,
2013-02-19 07:19:00,46.1,44.8,30.18,ESE,113,0.0,0.0,95,0.00,,CLR,0.00,VWS V14.01,2013-02-19 12:19:00,
2013-02-19 07:24:00,46.0,44.7,30.18,ESE,113,0.0,0.0,95,0.00,,CLR,0.00,VWS V14.01,2013-02-19 12:24:00,
2013-02-19 07:29:00,46.5,45.2,30.18,ESE,113,0.0,0.0,95,0.00,,CLR,0.00,VWS V14.01,2013-02-19 12:29:00,
2013-02-19 07:34:00,46.8,45.5,30.19,ESE,113,0.0,0.0,95,0.00,,CLR,0.00,VWS V14.01,2013-02-19 12:34:00,
2013-02-19 07:39:00,47.2,45.6,30.19,ESE,113,0.0,0.0,94,0.00,,CLR,0.00,VWS V14.01,2013-02-19 12:39:00,
2013-02-19 07:44:00,47.5,45.9,30.19,ESE,113,0.0,0.0,94,0.00,,CLR,0.00,VWS V14.01,2013-02-19 12:44:00,
2013-02-19 07:49:00,48.0,46.4,30.19,ESE,113,0.0,0.0,94,0.00,,CLR,0.00,VWS V14.01,2013-02-19 12:49:00,
2013-02-19 07:54:00,48.7,47.0,30.19,NNW,334,0.0,0.0,94,0.00,,CLR,0.00,VWS V14.01,2013-02-19 12:54:00,
2013-02-19 07:59:00,49.9,48.2,30.18,NNW,329,0.0,0.0,94,0.00,,CLR,0.00,VWS V14.01,2013-02-19 12:59:00,
2013-02-19 08:04:00,50.6,48.4,30.18,NE,48,0.0,0.0,92,0.00,,CLR,0.00,VWS V14.01,2013-02-19 13:04:00,
2013-02-19 08:09:00,51.3,48.8,30.19,ESE,109,0.0,2.0,91,0.00,,CLR,0.00,VWS V14.01,2013-02-19 13:09:00,
2013-02-19 08:14:00,52.0,49.2,30.19,ESE,109,0.0,2.0,90,0.00,,CLR,0.00,VWS V14.01,2013-02-19 13:14:00,
2013-02-19 08:19:00,52.6,49.5,30.19,ESE,109,0.0,2.0,89,0.00,,CLR,0.00,VWS V14.01,2013-02-19 13:19:00,
2013-02-19 08:24:00,53.3,49.8,30.19,ESE,109,0.0,2.0,88,0.00,,CLR,0.00,VWS V14.01,2013-02-19 13:24:00,
2013-02-19 08:29:00,54.1,50.3,30.19,ESE,109,0.0,2.0,87,0.00,,CLR,0.00,VWS V14.01,2013-02-19 13:29:00,
2013-02-19 08:34:00,54.9,50.8,30.19,ESE,109,0.0,0.0,86,0.00,,CLR,0.00,VWS V14.01,2013-02-19 13:34:00,
2013-02-19 08:39:00,55.6,51.5,30.20,ESE,109,0.0,0.0,86,0.00,,CLR,0.00,VWS V14.01,2013-02-19 13:39:00,
2013-02-19 08:44:00,56.7,51.9,30.20,SSW,197,2.0,6.0,84,0.00,,CLR,0.00,VWS V14.01,2013-02-19 13:44:00,
2013-02-19 08:49:00,57.6,52.2,30.20,SSE,161,2.0,6.0,82,0.00,,CLR,0.00,VWS V14.01,2013-02-19 13:49:00,
2013-02-19 08:54:00,58.5,52.4,30.20,South,173,1.0,8.0,80,0.00,,CLR,0.00,VWS V14.01,2013-02-19 13:54:00,
2013-02-19 08:59:00,59.4,52.9,30.20,SSE,166,5.0,8.0,79,0.00,,CLR,0.00,VWS V14.01,2013-02-19 13:59:00,
2013-02-19 09:04:00,60.6,53.7,30.20,SSW,202,4.0,8.0,78,0.00,,CLR,0.00,VWS V14.01,2013-02-19 14:04:00,
2013-02-19 09:09:00,61.4,54.1,30.20,South,191,5.0,8.0,77,0.00,,CLR,0.00,VWS V14.01,2013-02-19 14:09:00,
2013-02-19 09:14:00,62.4,54.4,30.20,South,187,1.0,8.0,75,0.00,,CLR,0.00,VWS V14.01,2013-02-19 14:14:00,
2013-02-19 09:19:00,63.2,54.8,30.20,South,173,8.0,8.0,74,0.00,,CLR,0.00,VWS V14.01,2013-02-19 14:19:00,
2013-02-19 09:24:00,64.0,55.2,30.20,SSE,160,0.0,8.0,73,0.00,,CLR,0.00,VWS V14.01,2013-02-19 14:24:00,
2013-02-19 09:29:00,64.8,55.6,30.20,SSW,197,4.0,9.0,72,0.00,,CLR,0.00,VWS V14.01,2013-02-19 14:29:00,
2013-02-19 09:35:00,65.4,55.8,30.20,SSW,199,0.0,6.0,71,0.00,,CLR,0.00,VWS V14.01,2013-02-19 14:35:00,
2013-02-19 09:40:00,66.1,56.0,30.19,SSW,206,7.0,9.0,70,0.00,,CLR,0.00,VWS V14.01,2013-02-19 14:40:00,
2013-02-19 09:45:00,66.5,56.4,30.19,South,190,10.0,14.0,70,0.00,,CLR,0.00,VWS V14.01,2013-02-19 14:45:00,
2013-02-19 09:50:00,66.8,56.3,30.19,SSE,156,9.0,14.0,69,0.00,,CLR,0.00,VWS V14.01,2013-02-19 14:50:00,
2013-02-19 09:55:00,67.2,56.3,30.19,SSW,196,3.0,14.0,68,0.00,,CLR,0.00,VWS V14.01,2013-02-19 14:55:00,
2013-02-19 10:00:00,67.2,56.3,30.19,SSW,206,3.0,6.0,68,0.00,,CLR,0.00,VWS V14.01,2013-02-19 15:00:00,
2013-02-19 10:05:00,67.6,56.7,30.19,SSE,163,9.0,13.0,68,0.00,,CLR,0.00,VWS V14.01,2013-02-19 15:05:00,
2013-02-19 10:10:00,68.1,56.7,30.19,SSE,162,4.0,14.0,67,0.00,,CLR,0.00,VWS V14.01,2013-02-19 15:10:00,
2013-02-19 10:15:00,68.7,56.5,30.19,South,182,4.0,14.0,65,0.00,,CLR,0.00,VWS V14.01,2013-02-19 15:15:00,
2013-02-19 10:20:00,69.6,56.5,30.19,South,188,9.0,15.0,63,0.00,,CLR,0.00,VWS V14.01,2013-02-19 15:20:00,
2013-02-19 10:25:00,70.3,56.2,30.19,SW,229,12.0,15.0,61,0.00,,CLR,0.00,VWS V14.01,2013-02-19 15:25:00,
2013-02-19 10:30:00,70.3,55.3,30.19,WSW,237,3.0,7.0,59,0.00,,CLR,0.00,VWS V14.01,2013-02-19 15:30:00,
2013-02-19 10:35:00,70.6,55.1,30.19,SSW,196,5.0,17.0,58,0.00,,CLR,0.00,VWS V14.01,2013-02-19 15:35:00,
2013-02-19 10:40:00,71.1,55.1,30.19,SSW,207,7.0,17.0,57,0.00,,CLR,0.00,VWS V14.01,2013-02-19 15:40:00,
2013-02-19 10:45:00,70.9,54.9,30.18,SSW,194,10.0,17.0,57,0.00,,CLR,0.00,VWS V14.01,2013-02-19 15:45:00,
2013-02-19 10:50:00,71.2,55.2,30.19,SW,221,7.0,17.0,57,0.00,,CLR,0.00,VWS V14.01,2013-02-19 15:50:00,
2013-02-19 10:55:00,72.0,55.5,30.19,South,188,11.0,17.0,56,0.00,,CLR,0.00,VWS V14.01,2013-02-19 15:55:00,
2013-02-19 11:00:00,72.3,55.2,30.18,SSW,196,7.0,11.0,55,0.00,,CLR,0.00,VWS V14.01,2013-02-19 16:00:00,
2013-02-19 11:05:00,72.2,55.2,30.18,WSW,240,7.0,17.0,55,0.00,,CLR,0.00,VWS V14.01,2013-02-19 16:05:00,
2013-02-19 11:10:00,71.8,54.8,30.18,SSW,200,4.0,20.0,55,0.00,,CLR,0.00,VWS V14.01,2013-02-19 16:10:00,
2013-02-19 11:15:00,72.8,55.7,30.19,SSW,211,5.0,20.0,55,0.00,,CLR,0.00,VWS V14.01,2013-02-19 16:15:00,
2013-02-19 11:20:00,73.2,56.1,30.18,SW,217,6.0,20.0,55,0.00,,CLR,0.00,VWS V14.01,2013-02-19 16:20:00,
2013-02-19 11:25:00,73.2,55.1,30.18,West,261,11.0,20.0,53,0.00,,CLR,0.00,VWS V14.01,2013-02-19 16:25:00,
2013-02-19 11:30:00,73.7,56.0,30.18,South,182,10.0,11.0,54,0.00,,CLR,0.00,VWS V14.01,2013-02-19 16:30:00,
2013-02-19 11:35:00,74.7,54.8,30.18,WSW,237,6.0,14.0,50,0.00,,CLR,0.00,VWS V14.01,2013-02-19 16:35:00,
2013-02-19 11:40:00,74.9,55.0,30.18,SW,223,3.0,14.0,50,0.00,,CLR,0.00,VWS V14.01,2013-02-19 16:40:00,
2013-02-19 11:45:00,75.1,55.8,30.18,SSW,205,5.0,17.0,51,0.00,,CLR,0.00,VWS V14.01,2013-02-19 16:45:00,
2013-02-19 11:50:00,75.3,55.4,30.18,SW,233,12.0,17.0,50,0.00,,CLR,0.00,VWS V14.01,2013-02-19 16:50:00,
2013-02-19 11:55:00,75.4,56.0,30.17,South,182,6.0,17.0,51,0.00,,CLR,0.00,VWS V14.01,2013-02-19 16:55:00,
2013-02-19 12:00:00,75.6,55.7,30.17,WSW,251,6.0,15.0,50,0.00,,CLR,0.00,VWS V14.01,2013-02-19 17:00:00,
2013-02-19 12:05:00,75.8,56.4,30.17,SSW,205,10.0,16.0,51,0.00,,CLR,0.00,VWS V14.01,2013-02-19 17:05:00,
2013-02-19 12:10:00,76.3,55.8,30.16,SSW,211,6.0,16.0,49,0.00,,CLR,0.00,VWS V14.01,2013-02-19 17:10:00,
2013-02-19 12:16:00,76.8,56.2,30.16,SSW,195,8.0,16.0,49,0.00,,CLR,0.00,VWS V14.01,2013-02-19 17:16:00,
2013-02-19 12:21:00,76.7,55.5,30.16,SW,214,7.0,16.0,48,0.00,,CLR,0.00,VWS V14.01,2013-02-19 17:21:00,
2013-02-19 12:26:00,75.8,54.7,30.16,SW,222,7.0,16.0,48,0.00,,CLR,0.00,VWS V14.01,2013-02-19 17:26:00,
2013-02-19 12:31:00,76.0,55.5,30.15,SSW,202,6.0,12.0,49,0.00,,CLR,0.00,VWS V14.01,2013-02-19 17:31:00,
2013-02-19 12:36:00,76.9,55.2,30.15,SW,233,7.0,16.0,47,0.00,,CLR,0.00,VWS V14.01,2013-02-19 17:36:00,
2013-02-19 12:41:00,77.2,55.4,30.14,WNW,303,4.0,16.0,47,0.00,,CLR,0.00,VWS V14.01,2013-02-19 17:41:00,
2013-02-19 12:46:00,77.4,55.0,30.14,WSW,253,8.0,16.0,46,0.00,,CLR,0.00,VWS V14.01,2013-02-19 17:46:00,
2013-02-19 12:51:00,77.3,55.5,30.14,WSW,247,7.0,17.0,47,0.00,,CLR,0.00,VWS V14.01,2013-02-19 17:51:00,
2013-02-19 12:56:00,77.6,55.8,30.14,West,280,6.0,17.0,47,0.00,,CLR,0.00,VWS V14.01,2013-02-19 17:56:00,
2013-02-19 13:01:00,78.3,55.2,30.14,WNW,300,2.0,5.0,45,0.00,,CLR,0.00,VWS V14.01,2013-02-19 18:01:00,
2013-02-19 13:06:00,77.3,54.9,30.13,WSW,240,10.0,18.0,46,0.00,,CLR,0.00,VWS V14.01,2013-02-19 18:06:00,
2013-02-19 13:11:00,76.5,54.2,30.12,SSW,199,13.0,19.0,46,0.00,,CLR,0.00,VWS V14.01,2013-02-19 18:11:00,
2013-02-19 13:16:00,75.9,54.2,30.12,WSW,257,8.0,19.0,47,0.00,,CLR,0.00,VWS V14.01,2013-02-19 18:16:00,
2013-02-19 13:21:00,76.5,54.2,30.12,West,278,5.0,19.0,46,0.00,,CLR,0.00,VWS V14.01,2013-02-19 18:21:00,
2013-02-19 13:26:00,75.9,54.2,30.12,WNW,298,5.0,19.0,47,0.00,,CLR,0.00,VWS V14.01,2013-02-19 18:26:00,
2013-02-19 13:31:00,74.8,54.4,30.12,WSW,250,6.0,8.0,49,0.00,,CLR,0.00,VWS V14.01,2013-02-19 18:31:00,
2013-02-19 13:36:00,74.7,53.7,30.11,SW,218,6.0,13.0,48,0.00,,CLR,0.00,VWS V14.01,2013-02-19 18:36:00,
2013-02-19 13:41:00,74.6,54.2,30.11,WSW,254,10.0,15.0,49,0.00,,CLR,0.00,VWS V14.01,2013-02-19 18:41:00,
2013-02-19 13:46:00,74.3,53.9,30.11,West,273,6.0,15.0,49,0.00,,CLR,0.00,VWS V14.01,2013-02-19 18:46:00,
2013-02-19 13:51:00,74.4,54.6,30.10,West,259,3.0,15.0,50,0.00,,CLR,0.00,VWS V14.01,2013-02-19 18:51:00,
2013-02-19 13:56:00,74.8,54.4,30.10,WSW,239,4.0,15.0,49,0.00,,CLR,0.00,VWS V14.01,2013-02-19 18:56:00,
2013-02-19 14:01:00,74.8,54.9,30.10,West,281,5.0,9.0,50,0.00,,CLR,0.00,VWS V14.01,2013-02-19 19:01:00,
2013-02-19 14:06:00,75.1,55.2,30.10,SW,236,4.0,17.0,50,0.00,,CLR,0.00,VWS V14.01,2013-02-19 19:06:00,
2013-02-19 14:11:00,76.9,55.7,30.09,SW,223,4.0,17.0,48,0.00,,CLR,0.00,VWS V14.01,2013-02-19 19:11:00,
2013-02-19 14:16:00,78.1,55.7,30.09,SW,230,11.0,17.0,46,0.00,,CLR,0.00,VWS V14.01,2013-02-19 19:16:00,
2013-02-19 14:21:00,78.3,55.2,30.09,WSW,242,12.0,17.0,45,0.00,,CLR,0.00,VWS V14.01,2013-02-19 19:21:00,
2013-02-19 14:26:00,77.6,54.6,30.09,West,271,6.0,20.0,45,0.00,,CLR,0.00,VWS V14.01,2013-02-19 19:26:00,
2013-02-19 14:31:00,77.7,54.7,30.09,SW,233,10.0,15.0,45,0.00,,CLR,0.00,VWS V14.01,2013-02-19 19:31:00,
2013-02-19 14:36:00,78.1,55.0,30.09,WSW,249,10.0,17.0,45,0.00,,CLR,0.00,VWS V14.01,2013-02-19 19:36:00,
2013-02-19 14:41:00,78.2,54.5,30.09,SW,234,7.0,17.0,44,0.00,,CLR,0.00,VWS V14.01,2013-02-19 19:41:00,
2013-02-19 14:46:00,77.2,55.4,30.08,SW,226,10.0,17.0,47,0.00,,CLR,0.00,VWS V14.01,2013-02-19 19:46:00,
2013-02-19 14:51:00,77.9,55.5,30.08,WSW,257,8.0,20.0,46,0.00,,CLR,0.00,VWS V14.01,2013-02-19 19:51:00,
2013-02-19 14:56:00,78.3,55.2,30.08,SW,214,4.0,20.0,45,0.00,,CLR,0.00,VWS V14.01,2013-02-19 19:56:00,
2013-02-19 15:01:00,77.9,54.9,30.08,West,271,7.0,15.0,45,0.00,,CLR,0.00,VWS V14.01,2013-02-19 20:01:00,
2013-02-19 15:06:00,77.5,55.1,30.07,WSW,238,1.0,15.0,46,0.00,,CLR,0.00,VWS V14.01,2013-02-19 20:06:00,
2013-02-19 15:12:00,77.9,55.5,30.07,WSW,242,17.0,17.0,46,0.00,,CLR,0.00,VWS V14.01,2013-02-19 20:12:00,
2013-02-19 15:17:00,78.8,55.7,30.08,West,267,13.0,17.0,45,0.00,,CLR,0.00,VWS V14.01,2013-02-19 20:17:00,
2013-02-19 15:22:00,78.3,55.2,30.07,WSW,257,12.0,19.0,45,0.00,,CLR,0.00,VWS V14.01,2013-02-19 20:22:00,
2013-02-19 15:27:00,78.3,55.8,30.07,WSW,256,12.0,19.0,46,0.00,,CLR,0.00,VWS V14.01,2013-02-19 20:27:00,
2013-02-19 15:32:00,78.3,55.2,30.07,West,263,11.0,22.0,45,0.00,,CLR,0.00,VWS V14.01,2013-02-19 20:32:00,
2013-02-19 15:37:00,78.3,55.2,30.07,WSW,238,6.0,22.0,45,0.00,,CLR,0.00,VWS V14.01,2013-02-19 20:37:00,
2013-02-19 15:42:00,77.6,55.2,30.07,WSW,254,7.0,22.0,46,0.00,,CLR,0.00,VWS V14.01,2013-02-19 20:42:00,
2013-02-19 15:47:00,77.9,55.5,30.07,West,262,10.0,22.0,46,0.00,,CLR,0.00,VWS V14.01,2013-02-19 20:47:00,
2013-02-19 15:52:00,77.6,55.2,30.07,West,274,9.0,22.0,46,0.00,,CLR,0.00,VWS V14.01,2013-02-19 20:52:00,
2013-02-19 15:57:00,77.8,55.4,30.07,West,269,4.0,22.0,46,0.00,,CLR,0.00,VWS V14.01,2013-02-19 20:57:00,
2013-02-19 16:02:00,77.9,55.5,30.06,West,268,10.0,17.0,46,0.00,,CLR,0.00,VWS V14.01,2013-02-19 21:02:00,
2013-02-19 16:07:00,77.8,55.4,30.06,WNW,283,7.0,19.0,46,0.00,,CLR,0.00,VWS V14.01,2013-02-19 21:07:00,
2013-02-19 16:12:00,77.4,55.6,30.06,NW,311,13.0,19.0,47,0.00,,CLR,0.00,VWS V14.01,2013-02-19 21:12:00,
2013-02-19 16:17:00,77.0,55.8,30.06,WSW,254,7.0,19.0,48,0.00,,CLR,0.00,VWS V14.01,2013-02-19 21:17:00,
2013-02-19 16:22:00,76.7,55.0,30.06,West,260,8.0,20.0,47,0.00,,CLR,0.00,VWS V14.01,2013-02-19 21:22:00,
2013-02-19 16:27:00,76.1,55.0,30.06,West,272,7.0,20.0,48,0.00,,CLR,0.00,VWS V14.01,2013-02-19 21:27:00,
2013-02-19 16:32:00,76.3,55.8,30.06,West,272,9.0,17.0,49,0.00,,CLR,0.00,VWS V14.01,2013-02-19 21:32:00,
2013-02-19 16:37:00,76.3,55.8,30.07,West,273,6.0,17.0,49,0.00,,CLR,0.00,VWS V14.01,2013-02-19 21:37:00,
2013-02-19 16:42:00,75.7,55.2,30.07,West,268,11.0,17.0,49,0.00,,CLR,0.00,VWS V14.01,2013-02-19 21:42:00,
2013-02-19 16:47:00,76.1,55.6,30.07,WSW,248,5.0,17.0,49,0.00,,CLR,0.00,VWS V14.01,2013-02-19 21:47:00,
2013-02-19 16:52:00,76.3,55.8,30.07,West,269,10.0,17.0,49,0.00,,CLR,0.00,VWS V14.01,2013-02-19 21:52:00,
2013-02-19 16:57:00,75.7,55.8,30.07,WSW,248,5.0,17.0,50,0.00,,CLR,0.00,VWS V14.01,2013-02-19 21:57:00,
2013-02-19 17:02:00,75.2,55.8,30.07,WSW,246,2.0,15.0,51,0.00,,CLR,0.00,VWS V14.01,2013-02-19 22:02:00,
2013-02-19 17:07:00,75.2,56.4,30.07,West,270,8.0,15.0,52,0.00,,CLR,0.00,VWS V14.01,2013-02-19 22:07:00,
2013-02-19 17:12:00,75.1,56.8,30.07,WSW,237,8.0,15.0,53,0.00,,CLR,0.00,VWS V14.01,2013-02-19 22:12:00,
2013-02-19 17:17:00,75.0,56.7,30.07,WSW,244,7.0,15.0,53,0.00,,CLR,0.00,VWS V14.01,2013-02-19 22:17:00,
2013-02-19 17:22:00,74.5,56.3,30.08,West,276,7.0,15.0,53,0.00,,CLR,0.00,VWS V14.01,2013-02-19 22:22:00,
2013-02-19 17:27:00,74.1,56.4,30.08,West,260,11.0,15.0,54,0.00,,CLR,0.00,VWS V14.01,2013-02-19 22:27:00,
2013-02-19 17:32:00,73.7,56.5,30.08,SW,235,6.0,11.0,55,0.00,,CLR,0.00,VWS V14.01,2013-02-19 22:32:00,
2013-02-19 17:37:00,73.6,56.5,30.08,SW,233,10.0,15.0,55,0.00,,CLR,0.00,VWS V14.01,2013-02-19 22:37:00,
2013-02-19 17:43:00,73.6,56.5,30.08,West,272,9.0,15.0,55,0.00,,CLR,0.00,VWS V14.01,2013-02-19 22:43:00,
2013-02-19 17:48:00,73.2,56.6,30.08,West,267,7.0,15.0,56,0.00,,CLR,0.00,VWS V14.01,2013-02-19 22:48:00,
2013-02-19 17:53:00,72.7,56.6,30.08,West,262,6.0,15.0,57,0.00,,CLR,0.00,VWS V14.01,2013-02-19 22:53:00,
2013-02-19 17:58:00,72.4,56.3,30.08,West,263,5.0,15.0,57,0.00,,CLR,0.00,VWS V14.01,2013-02-19 22:58:00,
2013-02-19 18:03:00,72.1,56.5,30.08,WSW,257,6.0,12.0,58,0.00,,CLR,0.00,VWS V14.01,2013-02-19 23:03:00,
2013-02-19 18:08:00,71.9,56.3,30.08,West,274,5.0,12.0,58,0.00,,CLR,0.00,VWS V14.01,2013-02-19 23:08:00,
2013-02-19 18:13:00,71.5,56.4,30.08,West,269,3.0,12.0,59,0.00,,CLR,0.00,VWS V14.01,2013-02-19 23:13:00,
2013-02-19 18:18:00,71.3,56.2,30.08,WSW,251,3.0,12.0,59,0.00,,CLR,0.00,VWS V14.01,2013-02-19 23:18:00,
2013-02-19 18:23:00,71.0,56.4,30.08,West,260,3.0,12.0,60,0.00,,CLR,0.00,VWS V14.01,2013-02-19 23:23:00,
2013-02-19 18:28:00,70.7,56.2,30.08,West,264,7.0,12.0,60,0.00,,CLR,0.00,VWS V14.01,2013-02-19 23:28:00,
2013-02-19 18:33:00,70.4,56.3,30.08,West,279,6.0,8.0,61,0.00,,CLR,0.00,VWS V14.01,2013-02-19 23:33:00,
2013-02-19 18:38:00,70.1,56.5,30.08,WSW,256,3.0,8.0,62,0.00,,CLR,0.00,VWS V14.01,2013-02-19 23:38:00,
2013-02-19 18:43:00,69.8,56.7,30.09,West,267,0.0,8.0,63,0.00,,CLR,0.00,VWS V14.01,2013-02-19 23:43:00,
2013-02-19 18:48:00,69.5,56.4,30.09,West,260,4.0,8.0,63,0.00,,CLR,0.00,VWS V14.01,2013-02-19 23:48:00,
2013-02-19 18:53:00,69.3,56.6,30.09,West,271,0.0,8.0,64,0.00,,CLR,0.00,VWS V14.01,2013-02-19 23:53:00,
2013-02-19 18:58:00,68.9,56.2,30.09,West,269,0.0,8.0,64,0.00,,CLR,0.00,VWS V14.01,2013-02-19 23:58:00,
2013-02-19 19:03:00,68.7,56.5,30.09,WSW,242,3.0,7.0,65,0.00,,CLR,0.00,VWS V14.01,2013-02-20 00:03:00,
2013-02-19 19:08:00,68.6,56.8,30.09,West,261,3.0,7.0,66,0.00,,CLR,0.00,VWS V14.01,2013-02-20 00:08:00,
2013-02-19 19:13:00,68.4,56.6,30.10,West,260,3.0,7.0,66,0.00,,CLR,0.00,VWS V14.01,2013-02-20 00:13:00,
2013-02-19 19:18:00,68.3,56.9,30.10,WSW,241,3.0,7.0,67,0.00,,CLR,0.00,VWS V14.01,2013-02-20 00:18:00,
2013-02-19 19:23:00,68.0,57.1,30.10,WSW,244,0.0,7.0,68,0.00,,CLR,0.00,VWS V14.01,2013-02-20 00:23:00,
2013-02-19 19:28:00,67.8,56.9,30.10,WSW,244,0.0,7.0,68,0.00,,CLR,0.00,VWS V14.01,2013-02-20 00:28:00,
2013-02-19 19:33:00,67.5,57.0,30.10,WSW,257,0.0,3.0,69,0.00,,CLR,0.00,VWS V14.01,2013-02-20 00:33:00,
2013-02-19 19:38:00,67.3,57.2,30.10,West,259,0.0,3.0,70,0.00,,CLR,0.00,VWS V14.01,2013-02-20 00:38:00,
2013-02-19 19:43:00,67.0,56.9,30.10,West,259,0.0,3.0,70,0.00,,CLR,0.00,VWS V14.01,2013-02-20 00:43:00,
2013-02-19 19:48:00,66.7,57.0,30.10,West,259,0.0,3.0,71,0.00,,CLR,0.00,VWS V14.01,2013-02-20 00:48:00,
2013-02-19 19:53:00,66.1,56.8,30.10,West,259,0.0,3.0,72,0.00,,CLR,0.00,VWS V14.01,2013-02-20 00:53:00,
2013-02-19 19:58:00,66.0,56.7,30.11,West,259,0.0,3.0,72,0.00,,CLR,0.00,VWS V14.01,2013-02-20 00:58:00,
2013-02-19 20:03:00,65.9,57.0,30.11,West,259,0.0,0.0,73,0.00,,CLR,0.00,VWS V14.01,2013-02-20 01:03:00,
2013-02-19 20:08:00,65.6,56.7,30.10,West,259,0.0,0.0,73,0.00,,CLR,0.00,VWS V14.01,2013-02-20 01:08:00,
2013-02-19 20:13:00,65.1,56.6,30.11,West,259,0.0,0.0,74,0.00,,CLR,0.00,VWS V14.01,2013-02-20 01:13:00,
2013-02-19 20:18:00,64.7,56.6,30.11,West,259,0.0,0.0,75,0.00,,CLR,0.00,VWS V14.01,2013-02-20 01:18:00,
2013-02-19 20:23:00,64.6,56.5,30.11,West,259,0.0,0.0,75,0.00,,CLR,0.00,VWS V14.01,2013-02-20 01:23:00,
2013-02-19 20:28:00,64.4,56.7,30.11,West,259,0.0,0.0,76,0.00,,CLR,0.00,VWS V14.01,2013-02-20 01:28:00,
2013-02-19 20:33:00,64.2,56.5,30.10,West,259,0.0,0.0,76,0.00,,CLR,0.00,VWS V14.01,2013-02-20 01:33:00,
2013-02-19 20:38:00,63.8,56.5,30.11,West,259,0.0,0.0,77,0.00,,CLR,0.00,VWS V14.01,2013-02-20 01:38:00,
2013-02-19 20:44:00,63.7,56.7,30.10,West,259,0.0,0.0,78,0.00,,CLR,0.00,VWS V14.01,2013-02-20 01:44:00,
2013-02-19 20:49:00,63.6,56.6,30.10,West,259,0.0,0.0,78,0.00,,CLR,0.00,VWS V14.01,2013-02-20 01:49:00,
2013-02-19 20:54:00,63.1,56.5,30.10,West,259,0.0,0.0,79,0.00,,CLR,0.00,VWS V14.01,2013-02-20 01:54:00,
2013-02-19 20:59:00,62.6,56.0,30.10,West,259,0.0,0.0,79,0.00,,CLR,0.00,VWS V14.01,2013-02-20 01:59:00,
2013-02-19 21:04:00,62.4,56.5,30.10,West,259,0.0,0.0,81,0.00,,CLR,0.00,VWS V14.01,2013-02-20 02:04:00,
2013-02-19 21:09:00,62.0,56.1,30.10,West,259,0.0,0.0,81,0.00,,CLR,0.00,VWS V14.01,2013-02-20 02:09:00,
2013-02-19 21:14:00,62.0,56.5,30.11,West,259,0.0,0.0,82,0.00,,CLR,0.00,VWS V14.01,2013-02-20 02:14:00,
2013-02-19 21:19:00,61.9,56.3,30.11,West,259,0.0,0.0,82,0.00,,CLR,0.00,VWS V14.01,2013-02-20 02:19:00,
2013-02-19 21:24:00,61.8,56.2,30.10,West,259,0.0,0.0,82,0.00,,CLR,0.00,VWS V14.01,2013-02-20 02:24:00,
2013-02-19 21:29:00,61.8,56.2,30.10,West,259,0.0,0.0,82,0.00,,CLR,0.00,VWS V14.01,2013-02-20 02:29:00,
2013-02-19 21:34:00,61.8,56.2,30.10,West,259,0.0,0.0,82,0.00,,CLR,0.00,VWS V14.01,2013-02-20 02:34:00,
2013-02-19 21:39:00,61.5,56.0,30.10,West,259,0.0,0.0,82,0.00,,CLR,0.00,VWS V14.01,2013-02-20 02:39:00,
2013-02-19 21:44:00,61.2,56.0,30.10,West,259,0.0,0.0,83,0.00,,CLR,0.00,VWS V14.01,2013-02-20 02:44:00,
2013-02-19 21:49:00,60.6,55.8,30.10,West,259,0.0,0.0,84,0.00,,CLR,0.00,VWS V14.01,2013-02-20 02:49:00,
2013-02-19 21:54:00,60.6,55.8,30.10,West,259,0.0,0.0,84,0.00,,CLR,0.00,VWS V14.01,2013-02-20 02:54:00,
2013-02-19 21:59:00,60.6,55.8,30.10,West,259,0.0,0.0,84,0.00,,CLR,0.00,VWS V14.01,2013-02-20 02:59:00,
2013-02-19 22:04:00,60.5,56.0,30.10,West,259,0.0,0.0,85,0.00,,CLR,0.00,VWS V14.01,2013-02-20 03:04:00,
2013-02-19 22:09:00,60.2,55.7,30.10,West,259,0.0,0.0,85,0.00,,CLR,0.00,VWS V14.01,2013-02-20 03:09:00,
2013-02-19 22:14:00,59.9,55.7,30.10,West,259,0.0,0.0,86,0.00,,CLR,0.00,VWS V14.01,2013-02-20 03:14:00,
2013-02-19 22:19:00,60.1,55.9,30.10,West,259,0.0,0.0,86,0.00,,CLR,0.00,VWS V14.01,2013-02-20 03:19:00,
2013-02-19 22:24:00,60.4,55.9,30.10,West,259,0.0,0.0,85,0.00,,CLR,0.00,VWS V14.01,2013-02-20 03:24:00,
2013-02-19 22:29:00,60.4,55.9,30.09,WSW,257,0.0,0.0,85,0.00,,CLR,0.00,VWS V14.01,2013-02-20 03:29:00,
2013-02-19 22:34:00,60.3,55.8,30.10,WSW,257,0.0,0.0,85,0.00,,CLR,0.00,VWS V14.01,2013-02-20 03:34:00,
2013-02-19 22:39:00,60.1,55.6,30.09,WSW,257,0.0,0.0,85,0.00,,CLR,0.00,VWS V14.01,2013-02-20 03:39:00,
2013-02-19 22:44:00,60.0,55.5,30.10,WSW,257,0.0,0.0,85,0.00,,CLR,0.00,VWS V14.01,2013-02-20 03:44:00,
2013-02-19 22:49:00,60.1,55.9,30.10,SW,222,0.0,3.0,86,0.00,,CLR,0.00,VWS V14.01,2013-02-20 03:49:00,
2013-02-19 22:54:00,60.5,56.3,30.09,SW,216,0.0,3.0,86,0.00,,CLR,0.00,VWS V14.01,2013-02-20 03:54:00,
2013-02-19 22:59:00,60.8,56.6,30.09,SW,225,0.0,3.0,86,0.00,,CLR,0.00,VWS V14.01,2013-02-20 03:59:00,
2013-02-19 23:04:00,61.0,56.8,30.09,SW,225,0.0,0.0,86,0.00,,CLR,0.00,VWS V14.01,2013-02-20 04:04:00,
2013-02-19 23:09:00,61.1,56.9,30.09,SW,225,0.0,0.0,86,0.00,,CLR,0.00,VWS V14.01,2013-02-20 04:09:00,
2013-02-19 23:14:00,61.0,56.8,30.09,SW,225,0.0,0.0,86,0.00,,CLR,0.00,VWS V14.01,2013-02-20 04:14:00,
2013-02-19 23:19:00,61.0,56.8,30.09,SW,225,0.0,0.0,86,0.00,,CLR,0.00,VWS V14.01,2013-02-20 04:19:00,
2013-02-19 23:24:00,61.1,56.9,30.09,SW,225,0.0,0.0,86,0.00,,CLR,0.00,VWS V14.01,2013-02-20 04:24:00,
2013-02-19 23:30:00,61.3,57.4,30.09,SW,225,0.0,0.0,87,0.00,,CLR,0.00,VWS V14.01,2013-02-20 04:30:00,
2013-02-19 23:35:00,61.6,57.4,30.09,SW,225,0.0,0.0,86,0.00,,CLR,0.00,VWS V14.01,2013-02-20 04:35:00,
2013-02-19 23:40:00,61.8,57.6,30.09,SW,225,0.0,0.0,86,0.00,,CLR,0.00,VWS V14.01,2013-02-20 04:40:00,
2013-02-19 23:45:00,61.9,57.7,30.09,SW,225,0.0,0.0,86,0.00,,CLR,0.00,VWS V14.01,2013-02-20 04:45:00,
2013-02-19 23:50:00,62.0,57.8,30.10,SW,225,0.0,0.0,86,0.00,,CLR,0.00,VWS V14.01,2013-02-20 04:50:00,
2013-02-19 23:55:00,62.1,57.9,30.10,SW,227,0.0,0.0,86,0.00,,CLR,0.00,VWS V14.01,2013-02-20 04:55:00,